sensor_id;sensor_type;location;lat;lon;timestamp;pressure;altitude;pressure_sealevel;temperature;humidity
6032;BME280;3044;43.232;27.972;2023-02-11T00:01:21;45243.31;;;-143.84;49.57
6032;BME280;3044;43.232;27.972;2023-02-11T00:03:50;45250.91;;;-143.84;48.92
6032;BME280;3044;43.232;27.972;2023-02-11T00:06:17;45254.72;;;-143.84;48.20
6032;BME280;3044;43.232;27.972;2023-02-11T00:08:45;45279.47;;;-143.84;47.62
6032;BME280;3044;43.232;27.972;2023-02-11T00:11:13;45260.44;;;-143.84;47.37
6032;BME280;3044;43.232;27.972;2023-02-11T00:13:41;45254.72;;;-143.84;48.08
6032;BME280;3044;43.232;27.972;2023-02-11T00:16:12;45260.44;;;-143.84;49.00
6032;BME280;3044;43.232;27.972;2023-02-11T00:18:39;45245.19;;;-143.84;49.27
6032;BME280;3044;43.232;27.972;2023-02-11T00:21:07;45269.97;;;-143.84;50.36
6032;BME280;3044;43.232;27.972;2023-02-11T00:23:35;45273.78;;;-143.84;50.45
6032;BME280;3044;43.232;27.972;2023-02-11T00:26:03;45250.91;;;-143.84;50.81
6032;BME280;3044;43.232;27.972;2023-02-11T00:28:30;45269.97;;;-143.84;50.98
6032;BME280;3044;43.232;27.972;2023-02-11T00:30:57;45271.88;;;-143.84;50.99
6032;BME280;3044;43.232;27.972;2023-02-11T00:33:27;45243.31;;;-143.84;51.30
6032;BME280;3044;43.232;27.972;2023-02-11T00:35:54;45273.78;;;-143.84;51.74
6032;BME280;3044;43.232;27.972;2023-02-11T00:38:21;45250.91;;;-143.84;52.12
6032;BME280;3044;43.232;27.972;2023-02-11T00:40:48;45266.16;;;-143.84;52.40
6032;BME280;3044;43.232;27.972;2023-02-11T00:43:15;45243.31;;;-143.84;52.50
6032;BME280;3044;43.232;27.972;2023-02-11T00:45:43;45268.06;;;-143.84;53.02
6032;BME280;3044;43.232;27.972;2023-02-11T00:48:10;45268.06;;;-143.84;53.15
6032;BME280;3044;43.232;27.972;2023-02-11T00:50:38;45258.53;;;-143.84;52.92
6032;BME280;3044;43.232;27.972;2023-02-11T00:53:05;45260.44;;;-143.84;53.72
6032;BME280;3044;43.232;27.972;2023-02-11T00:55:32;45254.72;;;-143.84;54.08
6032;BME280;3044;43.232;27.972;2023-02-11T00:58:00;45254.72;;;-143.84;54.63
6032;BME280;3044;43.232;27.972;2023-02-11T01:00:27;45241.41;;;-143.84;55.55
6032;BME280;3044;43.232;27.972;2023-02-11T01:02:54;45260.44;;;-143.84;56.60
6032;BME280;3044;43.232;27.972;2023-02-11T01:05:21;45258.53;;;-143.84;56.96
6032;BME280;3044;43.232;27.972;2023-02-11T01:07:50;45258.53;;;-143.84;56.76
6032;BME280;3044;43.232;27.972;2023-02-11T01:10:17;45249.00;;;-143.84;57.07
6032;BME280;3044;43.232;27.972;2023-02-11T01:12:44;45247.09;;;-143.84;56.99
6032;BME280;3044;43.232;27.972;2023-02-11T01:15:13;45245.19;;;-143.84;56.50
6032;BME280;3044;43.232;27.972;2023-02-11T01:17:41;45231.88;;;-143.84;56.40
6032;BME280;3044;43.232;27.972;2023-02-11T01:20:13;45235.69;;;-143.84;56.57
6032;BME280;3044;43.232;27.972;2023-02-11T01:22:41;45266.16;;;-143.84;56.62
6032;BME280;3044;43.232;27.972;2023-02-11T01:25:10;45264.25;;;-143.84;57.15
6032;BME280;3044;43.232;27.972;2023-02-11T01:27:37;45289.00;;;-143.84;58.22
6032;BME280;3044;43.232;27.972;2023-02-11T01:30:06;45271.88;;;-143.84;58.43
6032;BME280;3044;43.232;27.972;2023-02-11T01:32:34;45271.88;;;-143.84;58.70
6032;BME280;3044;43.232;27.972;2023-02-11T01:35:01;45269.97;;;-143.84;58.63
6032;BME280;3044;43.232;27.972;2023-02-11T01:37:28;45269.97;;;-143.84;58.35
6032;BME280;3044;43.232;27.972;2023-02-11T01:39:55;45264.25;;;-143.84;58.55
6032;BME280;3044;43.232;27.972;2023-02-11T01:42:24;45256.63;;;-143.84;58.65
6032;BME280;3044;43.232;27.972;2023-02-11T01:44:52;45250.91;;;-143.84;59.16
6032;BME280;3044;43.232;27.972;2023-02-11T01:47:20;45231.88;;;-143.84;59.67
6032;BME280;3044;43.232;27.972;2023-02-11T01:49:49;45266.16;;;-143.84;59.90
6032;BME280;3044;43.232;27.972;2023-02-11T01:52:21;45285.19;;;-143.84;60.18
6032;BME280;3044;43.232;27.972;2023-02-11T01:54:53;45262.34;;;-143.84;59.97
6032;BME280;3044;43.232;27.972;2023-02-11T01:57:43;45258.53;;;-143.84;59.87
6032;BME280;3044;43.232;27.972;2023-02-11T02:00:14;45258.53;;;-143.84;60.15
6032;BME280;3044;43.232;27.972;2023-02-11T02:02:48;45294.72;;;-143.84;60.12
6032;BME280;3044;43.232;27.972;2023-02-11T02:05:25;45275.66;;;-143.84;60.65
6032;BME280;3044;43.232;27.972;2023-02-11T02:07:59;45256.63;;;-143.84;60.68
6032;BME280;3044;43.232;27.972;2023-02-11T02:10:30;45243.31;;;-143.84;60.77
6032;BME280;3044;43.232;27.972;2023-02-11T02:12:58;45258.53;;;-143.84;60.73
6032;BME280;3044;43.232;27.972;2023-02-11T02:15:28;45250.91;;;-143.84;60.93
6032;BME280;3044;43.232;27.972;2023-02-11T02:18:02;45264.25;;;-143.84;61.58
6032;BME280;3044;43.232;27.972;2023-02-11T02:21:21;45266.16;;;-143.84;61.85
6032;BME280;3044;43.232;27.972;2023-02-11T02:24:34;45254.72;;;-143.84;61.43
6032;BME280;3044;43.232;27.972;2023-02-11T02:27:37;45260.44;;;-143.84;61.62
6032;BME280;3044;43.232;27.972;2023-02-11T02:30:53;45275.66;;;-143.84;60.96
6032;BME280;3044;43.232;27.972;2023-02-11T02:33:35;45256.63;;;-143.84;61.52
6032;BME280;3044;43.232;27.972;2023-02-11T02:36:11;45269.97;;;-143.84;61.10
6032;BME280;3044;43.232;27.972;2023-02-11T02:38:44;45269.97;;;-143.84;60.51
6032;BME280;3044;43.232;27.972;2023-02-11T02:41:16;45256.63;;;-143.84;60.49
6032;BME280;3044;43.232;27.972;2023-02-11T02:43:46;45283.28;;;-143.84;60.55
6032;BME280;3044;43.232;27.972;2023-02-11T02:46:16;45298.53;;;-143.84;60.98
6032;BME280;3044;43.232;27.972;2023-02-11T02:48:45;45249.00;;;-143.84;60.96
6032;BME280;3044;43.232;27.972;2023-02-11T02:51:30;45268.06;;;-143.84;60.99
6032;BME280;3044;43.232;27.972;2023-02-11T02:54:19;45290.91;;;-143.84;60.75
6032;BME280;3044;43.232;27.972;2023-02-11T02:56:54;45277.56;;;-143.84;60.38
6032;BME280;3044;43.232;27.972;2023-02-11T02:59:35;45287.09;;;-143.84;60.07
6032;BME280;3044;43.232;27.972;2023-02-11T03:02:10;45264.25;;;-143.84;59.76
6032;BME280;3044;43.232;27.972;2023-02-11T03:04:47;45245.19;;;-143.84;60.38
6032;BME280;3044;43.232;27.972;2023-02-11T03:07:23;45250.91;;;-143.84;60.53
6032;BME280;3044;43.232;27.972;2023-02-11T03:09:55;45268.06;;;-143.84;60.35
6032;BME280;3044;43.232;27.972;2023-02-11T03:12:26;45247.09;;;-143.84;60.37
6032;BME280;3044;43.232;27.972;2023-02-11T03:14:58;45254.72;;;-143.84;60.34
6032;BME280;3044;43.232;27.972;2023-02-11T03:17:28;45247.09;;;-143.84;60.33
6032;BME280;3044;43.232;27.972;2023-02-11T03:19:59;45262.34;;;-143.84;59.69
6032;BME280;3044;43.232;27.972;2023-02-11T03:22:32;45290.91;;;-143.84;59.82
6032;BME280;3044;43.232;27.972;2023-02-11T03:25:01;45262.34;;;-143.84;59.53
6032;BME280;3044;43.232;27.972;2023-02-11T03:27:33;45247.09;;;-143.84;58.84
6032;BME280;3044;43.232;27.972;2023-02-11T03:30:10;45277.56;;;-143.84;58.39
6032;BME280;3044;43.232;27.972;2023-02-11T03:32:40;45269.97;;;-143.84;58.67
6032;BME280;3044;43.232;27.972;2023-02-11T03:35:16;45268.06;;;-143.84;57.99
6032;BME280;3044;43.232;27.972;2023-02-11T03:37:49;45250.91;;;-143.84;58.50
6032;BME280;3044;43.232;27.972;2023-02-11T03:40:19;45289.00;;;-143.84;58.39
6032;BME280;3044;43.232;27.972;2023-02-11T03:42:52;45256.63;;;-143.84;57.87
6032;BME280;3044;43.232;27.972;2023-02-11T03:45:22;45258.53;;;-143.84;58.09
6032;BME280;3044;43.232;27.972;2023-02-11T03:47:54;45283.28;;;-143.84;57.50
6032;BME280;3044;43.232;27.972;2023-02-11T03:50:26;45273.78;;;-143.84;57.10
6032;BME280;3044;43.232;27.972;2023-02-11T03:52:56;45273.78;;;-143.84;56.67
6032;BME280;3044;43.232;27.972;2023-02-11T03:55:25;45292.81;;;-143.84;56.61
6032;BME280;3044;43.232;27.972;2023-02-11T03:57:54;45271.88;;;-143.84;56.37
6032;BME280;3044;43.232;27.972;2023-02-11T04:00:29;45281.38;;;-143.84;55.97
6032;BME280;3044;43.232;27.972;2023-02-11T04:02:56;45256.63;;;-143.84;55.98
6032;BME280;3044;43.232;27.972;2023-02-11T04:05:24;45262.34;;;-143.84;56.00
6032;BME280;3044;43.232;27.972;2023-02-11T04:07:51;45294.72;;;-143.84;56.48
6032;BME280;3044;43.232;27.972;2023-02-11T04:10:19;45271.88;;;-143.84;55.84
6032;BME280;3044;43.232;27.972;2023-02-11T04:12:46;45273.78;;;-143.84;55.88
6032;BME280;3044;43.232;27.972;2023-02-11T04:15:13;45260.44;;;-143.84;55.80
6032;BME280;3044;43.232;27.972;2023-02-11T04:17:40;45269.97;;;-143.84;55.74
6032;BME280;3044;43.232;27.972;2023-02-11T04:20:09;45283.28;;;-143.84;55.83
6032;BME280;3044;43.232;27.972;2023-02-11T04:22:37;45285.19;;;-143.84;55.63
6032;BME280;3044;43.232;27.972;2023-02-11T04:25:05;45266.16;;;-143.84;55.84
6032;BME280;3044;43.232;27.972;2023-02-11T04:27:32;45279.47;;;-143.84;55.97
6032;BME280;3044;43.232;27.972;2023-02-11T04:29:59;45277.56;;;-143.84;55.92
6032;BME280;3044;43.232;27.972;2023-02-11T04:32:27;45279.47;;;-143.84;56.00
6032;BME280;3044;43.232;27.972;2023-02-11T04:34:54;45285.19;;;-143.84;55.13
6032;BME280;3044;43.232;27.972;2023-02-11T04:37:21;45273.78;;;-143.84;55.37
6032;BME280;3044;43.232;27.972;2023-02-11T04:39:49;45271.88;;;-143.84;55.37
6032;BME280;3044;43.232;27.972;2023-02-11T04:42:16;45264.25;;;-143.84;54.83
6032;BME280;3044;43.232;27.972;2023-02-11T04:44:44;45249.00;;;-143.84;55.14
6032;BME280;3044;43.232;27.972;2023-02-11T04:47:11;45271.88;;;-143.84;54.46
6032;BME280;3044;43.232;27.972;2023-02-11T04:49:39;45266.16;;;-143.84;54.27
6032;BME280;3044;43.232;27.972;2023-02-11T04:52:07;45252.81;;;-143.84;54.41
6032;BME280;3044;43.232;27.972;2023-02-11T04:54:34;45264.25;;;-143.84;54.40
6032;BME280;3044;43.232;27.972;2023-02-11T04:57:02;45262.34;;;-143.84;54.03
6032;BME280;3044;43.232;27.972;2023-02-11T04:59:30;45285.19;;;-143.84;53.94
6032;BME280;3044;43.232;27.972;2023-02-11T05:01:57;45233.78;;;-143.84;53.72
6032;BME280;3044;43.232;27.972;2023-02-11T05:04:27;45281.38;;;-143.84;53.07
6032;BME280;3044;43.232;27.972;2023-02-11T05:06:54;45269.97;;;-143.84;55.99
6032;BME280;3044;43.232;27.972;2023-02-11T05:09:21;45296.63;;;-143.84;53.80
6032;BME280;3044;43.232;27.972;2023-02-11T05:11:48;45266.16;;;-143.84;52.61
6032;BME280;3044;43.232;27.972;2023-02-11T05:14:17;45254.72;;;-143.84;50.67
6032;BME280;3044;43.232;27.972;2023-02-11T05:16:44;45266.16;;;-143.84;49.47
6032;BME280;3044;43.232;27.972;2023-02-11T05:19:11;45264.25;;;-143.84;49.01
6032;BME280;3044;43.232;27.972;2023-02-11T05:21:38;45281.38;;;-143.84;47.81
6032;BME280;3044;43.232;27.972;2023-02-11T05:24:07;45245.19;;;-143.84;46.99
6032;BME280;3044;43.232;27.972;2023-02-11T05:26:34;45268.06;;;-143.84;46.68
6032;BME280;3044;43.232;27.972;2023-02-11T05:29:01;45266.16;;;-143.84;46.49
6032;BME280;3044;43.232;27.972;2023-02-11T05:31:30;45247.09;;;-143.84;46.08
6032;BME280;3044;43.232;27.972;2023-02-11T05:33:57;45273.78;;;-143.84;45.32
6032;BME280;3044;43.232;27.972;2023-02-11T05:36:24;45258.53;;;-143.84;45.27
6032;BME280;3044;43.232;27.972;2023-02-11T05:38:51;45283.28;;;-143.84;45.32
6032;BME280;3044;43.232;27.972;2023-02-11T05:41:18;45273.78;;;-143.84;45.33
6032;BME280;3044;43.232;27.972;2023-02-11T05:43:47;45266.16;;;-143.84;45.15
6032;BME280;3044;43.232;27.972;2023-02-11T05:46:15;45250.91;;;-143.84;44.82
6032;BME280;3044;43.232;27.972;2023-02-11T05:48:44;45241.41;;;-143.84;45.33
6032;BME280;3044;43.232;27.972;2023-02-11T05:51:11;45254.72;;;-143.84;45.36
6032;BME280;3044;43.232;27.972;2023-02-11T05:53:38;45260.44;;;-143.84;45.92
6032;BME280;3044;43.232;27.972;2023-02-11T05:56:05;45233.78;;;-143.84;45.91
6032;BME280;3044;43.232;27.972;2023-02-11T05:58:33;45250.91;;;-143.84;45.46
6032;BME280;3044;43.232;27.972;2023-02-11T06:01:00;45235.69;;;-143.84;45.64
6032;BME280;3044;43.232;27.972;2023-02-11T06:03:27;45241.41;;;-143.84;46.05
6032;BME280;3044;43.232;27.972;2023-02-11T06:05:56;45249.00;;;-143.84;44.57
6032;BME280;3044;43.232;27.972;2023-02-11T06:08:23;45266.16;;;-143.84;44.33
6032;BME280;3044;43.232;27.972;2023-02-11T06:10:50;45264.25;;;-143.84;43.82
6032;BME280;3044;43.232;27.972;2023-02-11T06:13:17;45237.59;;;-143.84;43.56
6032;BME280;3044;43.232;27.972;2023-02-11T06:15:44;45256.63;;;-143.84;43.45
6032;BME280;3044;43.232;27.972;2023-02-11T06:18:11;45250.91;;;-143.84;43.05
6032;BME280;3044;43.232;27.972;2023-02-11T06:20:38;45229.97;;;-143.84;43.20
6032;BME280;3044;43.232;27.972;2023-02-11T06:23:08;45254.72;;;-143.84;42.29
6032;BME280;3044;43.232;27.972;2023-02-11T06:25:35;45254.72;;;-143.84;40.86
6032;BME280;3044;43.232;27.972;2023-02-11T06:28:03;45235.69;;;-143.84;41.54
6032;BME280;3044;43.232;27.972;2023-02-11T06:30:30;45277.56;;;-143.84;40.87
6032;BME280;3044;43.232;27.972;2023-02-11T06:32:57;45228.06;;;-143.84;41.59
6032;BME280;3044;43.232;27.972;2023-02-11T06:35:24;45243.31;;;-143.84;42.68
6032;BME280;3044;43.232;27.972;2023-02-11T06:37:51;45229.97;;;-143.84;41.96
6032;BME280;3044;43.232;27.972;2023-02-11T06:40:20;45237.59;;;-143.84;42.08
6032;BME280;3044;43.232;27.972;2023-02-11T06:42:47;45228.06;;;-143.84;41.77
6032;BME280;3044;43.232;27.972;2023-02-11T06:45:15;45254.72;;;-143.84;42.11
6032;BME280;3044;43.232;27.972;2023-02-11T06:47:42;45222.34;;;-143.84;42.27
6032;BME280;3044;43.232;27.972;2023-02-11T06:50:11;45231.88;;;-143.84;40.31
6032;BME280;3044;43.232;27.972;2023-02-11T06:52:39;45247.09;;;-143.84;40.36
6032;BME280;3044;43.232;27.972;2023-02-11T06:55:06;45237.59;;;-143.84;39.60
6032;BME280;3044;43.232;27.972;2023-02-11T06:57:35;45243.31;;;-143.84;38.75
6032;BME280;3044;43.232;27.972;2023-02-11T07:00:03;45235.69;;;-143.84;37.16
6032;BME280;3044;43.232;27.972;2023-02-11T07:02:30;45210.94;;;-143.84;36.61
6032;BME280;3044;43.232;27.972;2023-02-11T07:04:57;45231.88;;;-143.84;36.88
6032;BME280;3044;43.232;27.972;2023-02-11T07:07:24;45239.50;;;-143.84;37.53
6032;BME280;3044;43.232;27.972;2023-02-11T07:09:51;45209.03;;;-143.84;36.96
6032;BME280;3044;43.232;27.972;2023-02-11T07:12:18;45197.59;;;-143.84;35.11
6032;BME280;3044;43.232;27.972;2023-02-11T07:14:47;45222.34;;;-143.84;35.86
6032;BME280;3044;43.232;27.972;2023-02-11T07:17:14;45203.31;;;-143.84;35.58
6032;BME280;3044;43.232;27.972;2023-02-11T07:19:41;45214.72;;;-143.84;34.85
6032;BME280;3044;43.232;27.972;2023-02-11T07:22:08;45178.56;;;-143.84;34.18
6032;BME280;3044;43.232;27.972;2023-02-11T07:24:35;45189.97;;;-143.84;34.75
6032;BME280;3044;43.232;27.972;2023-02-11T07:27:03;45201.41;;;-143.84;34.74
6032;BME280;3044;43.232;27.972;2023-02-11T07:29:30;45203.31;;;-143.84;34.45
6032;BME280;3044;43.232;27.972;2023-02-11T07:31:59;45172.84;;;-143.84;34.68
6032;BME280;3044;43.232;27.972;2023-02-11T07:34:26;45203.31;;;-143.84;35.06
6032;BME280;3044;43.232;27.972;2023-02-11T07:36:53;45193.78;;;-143.84;36.11
6032;BME280;3044;43.232;27.972;2023-02-11T07:39:20;45167.13;;;-143.84;33.99
6032;BME280;3044;43.232;27.972;2023-02-11T07:41:47;45161.41;;;-143.84;34.14
6032;BME280;3044;43.232;27.972;2023-02-11T07:44:14;45201.41;;;-143.84;34.32
6032;BME280;3044;43.232;27.972;2023-02-11T07:46:41;45159.50;;;-143.84;33.48
6032;BME280;3044;43.232;27.972;2023-02-11T07:49:11;45180.47;;;-143.84;32.89
6032;BME280;3044;43.232;27.972;2023-02-11T07:51:38;45193.78;;;-143.84;33.00
6032;BME280;3044;43.232;27.972;2023-02-11T07:54:05;45163.31;;;-143.84;32.74
6032;BME280;3044;43.232;27.972;2023-02-11T07:56:33;45170.94;;;-143.84;32.71
6032;BME280;3044;43.232;27.972;2023-02-11T07:59:01;45178.56;;;-143.84;32.29
6032;BME280;3044;43.232;27.972;2023-02-11T08:01:29;45172.84;;;-143.84;31.79
6032;BME280;3044;43.232;27.972;2023-02-11T08:03:57;45169.03;;;-143.84;31.35
6032;BME280;3044;43.232;27.972;2023-02-11T08:06:27;45172.84;;;-143.84;31.32
6032;BME280;3044;43.232;27.972;2023-02-11T08:08:55;45201.41;;;-143.84;31.66
6032;BME280;3044;43.232;27.972;2023-02-11T08:11:24;45186.16;;;-143.84;31.55
6032;BME280;3044;43.232;27.972;2023-02-11T08:13:52;45157.59;;;-143.84;31.15
6032;BME280;3044;43.232;27.972;2023-02-11T08:16:21;45159.50;;;-143.84;31.51
6032;BME280;3044;43.232;27.972;2023-02-11T08:18:49;45148.09;;;-143.84;32.23
6032;BME280;3044;43.232;27.972;2023-02-11T08:21:17;45188.06;;;-143.84;32.12
6032;BME280;3044;43.232;27.972;2023-02-11T08:23:46;45161.41;;;-143.84;31.60
6032;BME280;3044;43.232;27.972;2023-02-11T08:26:16;45146.19;;;-143.84;31.29
6032;BME280;3044;43.232;27.972;2023-02-11T08:28:45;45169.03;;;-143.84;31.69
6032;BME280;3044;43.232;27.972;2023-02-11T08:31:14;45155.69;;;-143.84;31.76
6032;BME280;3044;43.232;27.972;2023-02-11T08:33:41;45153.81;;;-143.84;31.82
6032;BME280;3044;43.232;27.972;2023-02-11T08:36:10;45172.84;;;-143.84;32.06
6032;BME280;3044;43.232;27.972;2023-02-11T08:38:37;45153.81;;;-143.84;33.31
6032;BME280;3044;43.232;27.972;2023-02-11T08:41:07;45163.31;;;-143.84;34.23
6032;BME280;3044;43.232;27.972;2023-02-11T08:43:35;45148.09;;;-143.84;34.31
6032;BME280;3044;43.232;27.972;2023-02-11T08:46:06;45142.38;;;-143.84;34.14
6032;BME280;3044;43.232;27.972;2023-02-11T08:48:33;45161.41;;;-143.84;33.93
6032;BME280;3044;43.232;27.972;2023-02-11T08:51:05;45151.91;;;-143.84;33.43
6032;BME280;3044;43.232;27.972;2023-02-11T08:53:32;45159.50;;;-143.84;32.00
6032;BME280;3044;43.232;27.972;2023-02-11T08:56:00;45148.09;;;-143.84;31.52
6032;BME280;3044;43.232;27.972;2023-02-11T08:58:28;45132.84;;;-143.84;31.75
6032;BME280;3044;43.232;27.972;2023-02-11T09:00:55;45169.03;;;-143.84;31.83
6032;BME280;3044;43.232;27.972;2023-02-11T09:03:22;45150.00;;;-143.84;32.04
6032;BME280;3044;43.232;27.972;2023-02-11T09:05:50;45144.28;;;-143.84;31.67
6032;BME280;3044;43.232;27.972;2023-02-11T09:08:18;45163.31;;;-143.84;31.27
6032;BME280;3044;43.232;27.972;2023-02-11T09:10:46;45140.47;;;-143.84;31.49
6032;BME280;3044;43.232;27.972;2023-02-11T09:13:13;45140.47;;;-143.84;30.64
6032;BME280;3044;43.232;27.972;2023-02-11T09:15:45;45115.72;;;-143.84;31.21
6032;BME280;3044;43.232;27.972;2023-02-11T09:18:12;45150.00;;;-143.84;30.33
6032;BME280;3044;43.232;27.972;2023-02-11T09:20:39;45132.84;;;-143.84;30.78
6032;BME280;3044;43.232;27.972;2023-02-11T09:23:06;45140.47;;;-143.84;31.23
6032;BME280;3044;43.232;27.972;2023-02-11T09:25:34;45146.19;;;-143.84;31.69
6032;BME280;3044;43.232;27.972;2023-02-11T09:28:01;45129.03;;;-143.84;30.90
6032;BME280;3044;43.232;27.972;2023-02-11T09:30:28;45138.56;;;-143.84;30.35
6032;BME280;3044;43.232;27.972;2023-02-11T09:32:56;45129.03;;;-143.84;30.85
6032;BME280;3044;43.232;27.972;2023-02-11T09:35:24;45132.84;;;-143.84;30.96
6032;BME280;3044;43.232;27.972;2023-02-11T09:37:51;45146.19;;;-143.84;31.72
6032;BME280;3044;43.232;27.972;2023-02-11T09:40:18;45125.22;;;-143.84;30.58
6032;BME280;3044;43.232;27.972;2023-02-11T09:42:47;45150.00;;;-143.84;30.52
6032;BME280;3044;43.232;27.972;2023-02-11T09:45:19;45130.94;;;-143.84;30.18
6032;BME280;3044;43.232;27.972;2023-02-11T09:47:54;45144.28;;;-143.84;31.58
6032;BME280;3044;43.232;27.972;2023-02-11T09:50:28;45132.84;;;-143.84;31.95
6032;BME280;3044;43.232;27.972;2023-02-11T09:52:59;45138.56;;;-143.84;31.69
6032;BME280;3044;43.232;27.972;2023-02-11T09:55:28;45130.94;;;-143.84;32.15
6032;BME280;3044;43.232;27.972;2023-02-11T09:57:57;45123.34;;;-143.84;31.60
6032;BME280;3044;43.232;27.972;2023-02-11T10:00:28;45140.47;;;-143.84;31.63
6032;BME280;3044;43.232;27.972;2023-02-11T10:03:27;45144.28;;;-143.84;31.63
6032;BME280;3044;43.232;27.972;2023-02-11T10:09:36;45117.63;;;-143.84;32.34
6032;BME280;3044;43.232;27.972;2023-02-11T10:12:21;45130.94;;;-143.84;32.75
6032;BME280;3044;43.232;27.972;2023-02-11T10:17:51;45144.28;;;-143.84;32.38
6032;BME280;3044;43.232;27.972;2023-02-11T10:20:30;45150.00;;;-143.84;32.67
6032;BME280;3044;43.232;27.972;2023-02-11T10:23:00;45140.47;;;-143.84;32.83
6032;BME280;3044;43.232;27.972;2023-02-11T10:25:34;45132.84;;;-143.84;32.57
6032;BME280;3044;43.232;27.972;2023-02-11T10:28:12;45163.31;;;-143.84;32.46
6032;BME280;3044;43.232;27.972;2023-02-11T10:30:42;45130.94;;;-143.84;32.10
6032;BME280;3044;43.232;27.972;2023-02-11T10:33:15;45144.28;;;-143.84;32.10
6032;BME280;3044;43.232;27.972;2023-02-11T10:35:46;45146.19;;;-143.84;32.13
6032;BME280;3044;43.232;27.972;2023-02-11T10:38:13;45125.22;;;-143.84;31.42
6032;BME280;3044;43.232;27.972;2023-02-11T10:40:42;45121.44;;;-143.84;30.27
6032;BME280;3044;43.232;27.972;2023-02-11T10:43:12;45159.50;;;-143.84;30.13
6032;BME280;3044;43.232;27.972;2023-02-11T10:45:43;45151.91;;;-143.84;30.06
6032;BME280;3044;43.232;27.972;2023-02-11T10:48:36;45110.00;;;-143.84;29.51
6032;BME280;3044;43.232;27.972;2023-02-11T10:51:12;45132.84;;;-143.84;29.31
6032;BME280;3044;43.232;27.972;2023-02-11T10:53:41;45113.81;;;-143.84;29.59
6032;BME280;3044;43.232;27.972;2023-02-11T10:56:13;45144.28;;;-143.84;29.62
6032;BME280;3044;43.232;27.972;2023-02-11T10:58:53;45136.66;;;-143.84;29.87
6032;BME280;3044;43.232;27.972;2023-02-11T11:01:21;45121.44;;;-143.84;29.39
6032;BME280;3044;43.232;27.972;2023-02-11T11:03:50;45155.69;;;-143.84;29.64
6032;BME280;3044;43.232;27.972;2023-02-11T11:06:28;45140.47;;;-143.84;30.80
6032;BME280;3044;43.232;27.972;2023-02-11T11:08:56;45148.09;;;-143.84;30.72
6032;BME280;3044;43.232;27.972;2023-02-11T11:11:25;45129.03;;;-143.84;30.29
6032;BME280;3044;43.232;27.972;2023-02-11T11:13:57;45146.19;;;-143.84;29.64
6032;BME280;3044;43.232;27.972;2023-02-11T11:16:26;45136.66;;;-143.84;29.21
6032;BME280;3044;43.232;27.972;2023-02-11T11:19:14;45130.94;;;-143.84;29.29
6032;BME280;3044;43.232;27.972;2023-02-11T11:21:43;45144.28;;;-143.84;29.67
6032;BME280;3044;43.232;27.972;2023-02-11T11:24:15;45129.03;;;-143.84;29.95
6032;BME280;3044;43.232;27.972;2023-02-11T11:26:46;45123.34;;;-143.84;30.20
6032;BME280;3044;43.232;27.972;2023-02-11T11:29:16;45138.56;;;-143.84;30.42
6032;BME280;3044;43.232;27.972;2023-02-11T11:31:47;45121.44;;;-143.84;30.34
6032;BME280;3044;43.232;27.972;2023-02-11T11:34:22;45144.28;;;-143.84;30.24
6032;BME280;3044;43.232;27.972;2023-02-11T11:36:49;45136.66;;;-143.84;29.65
6032;BME280;3044;43.232;27.972;2023-02-11T11:39:20;45157.59;;;-143.84;30.58
6032;BME280;3044;43.232;27.972;2023-02-11T11:42:03;45123.34;;;-143.84;30.15
6032;BME280;3044;43.232;27.972;2023-02-11T11:44:33;45144.28;;;-143.84;30.55
6032;BME280;3044;43.232;27.972;2023-02-11T11:47:23;45130.94;;;-143.84;30.04
6032;BME280;3044;43.232;27.972;2023-02-11T11:50:14;45132.84;;;-143.84;31.19
6032;BME280;3044;43.232;27.972;2023-02-11T11:52:51;45140.47;;;-143.84;31.68
6032;BME280;3044;43.232;27.972;2023-02-11T11:55:21;45138.56;;;-143.84;31.95
6032;BME280;3044;43.232;27.972;2023-02-11T11:57:52;45121.44;;;-143.84;31.82
6032;BME280;3044;43.232;27.972;2023-02-11T12:00:21;45121.44;;;-143.84;31.24
6032;BME280;3044;43.232;27.972;2023-02-11T12:05:54;45125.22;;;-143.84;31.27
6032;BME280;3044;43.232;27.972;2023-02-11T12:08:30;45148.09;;;-143.84;31.46
6032;BME280;3044;43.232;27.972;2023-02-11T12:11:07;45136.66;;;-143.84;31.84
6032;BME280;3044;43.232;27.972;2023-02-11T12:13:49;45148.09;;;-143.84;31.80
6032;BME280;3044;43.232;27.972;2023-02-11T12:16:24;45134.75;;;-143.84;31.61
6032;BME280;3044;43.232;27.972;2023-02-11T12:19:36;45136.66;;;-143.84;31.58
6032;BME280;3044;43.232;27.972;2023-02-11T12:22:10;45127.13;;;-143.84;31.86
6032;BME280;3044;43.232;27.972;2023-02-11T12:24:48;45138.56;;;-143.84;31.34
6032;BME280;3044;43.232;27.972;2023-02-11T12:27:26;45150.00;;;-143.84;31.63
6032;BME280;3044;43.232;27.972;2023-02-11T12:30:07;45130.94;;;-143.84;31.97
6032;BME280;3044;43.232;27.972;2023-02-11T12:32:47;45159.50;;;-143.84;32.13
6032;BME280;3044;43.232;27.972;2023-02-11T12:35:26;45146.19;;;-143.84;32.52
6032;BME280;3044;43.232;27.972;2023-02-11T12:38:08;45110.00;;;-143.84;32.78
6032;BME280;3044;43.232;27.972;2023-02-11T12:40:45;45174.75;;;-143.84;32.12
6032;BME280;3044;43.232;27.972;2023-02-11T12:43:21;45125.22;;;-143.84;31.61
6032;BME280;3044;43.232;27.972;2023-02-11T12:46:03;45119.53;;;-143.84;31.90
6032;BME280;3044;43.232;27.972;2023-02-11T12:49:00;45144.28;;;-143.84;31.77
6032;BME280;3044;43.232;27.972;2023-02-11T12:51:40;45138.56;;;-143.84;32.17
6032;BME280;3044;43.232;27.972;2023-02-11T12:54:18;45144.28;;;-143.84;31.18
6032;BME280;3044;43.232;27.972;2023-02-11T12:56:51;45130.94;;;-143.84;32.12
6032;BME280;3044;43.232;27.972;2023-02-11T12:59:32;45138.56;;;-143.84;31.87
6032;BME280;3044;43.232;27.972;2023-02-11T13:02:09;45155.69;;;-143.84;31.49
6032;BME280;3044;43.232;27.972;2023-02-11T13:04:39;45138.56;;;-143.84;32.17
6032;BME280;3044;43.232;27.972;2023-02-11T13:07:13;45144.28;;;-143.84;32.34
6032;BME280;3044;43.232;27.972;2023-02-11T13:09:44;45159.50;;;-143.84;31.53
6032;BME280;3044;43.232;27.972;2023-02-11T13:12:15;45148.09;;;-143.84;32.16
6032;BME280;3044;43.232;27.972;2023-02-11T13:15:03;45151.91;;;-143.84;31.89
6032;BME280;3044;43.232;27.972;2023-02-11T13:17:40;45153.81;;;-143.84;32.68
6032;BME280;3044;43.232;27.972;2023-02-11T13:20:20;45132.84;;;-143.84;32.80